Terminal Aerodrome Forecast
Issued by NWS Shreveport, LA

Home | Current Version | Previous Version | Text Only | Print | Product List | Glossary On
Versions: 1 2 3 4 5 6 7 8 9 10 11 12
000
FTUS44 KSHV 191723
TAFELD
TAF
KELD 191723Z 1918/2018 19007KT P6SM BKN040 OVC050
     FM200000 16004KT P6SM OVC040
     FM201000 16005KT P6SM OVC025
     FM201500 15006KT 5SM BR OVC007=

USA.gov is the U.S. government's official web portal to all federal, state and local government web resources and services.